Terminal Aerodrome Forecast
Issued by NWS Portland, ME

Home | Current Version | Previous Version | Text Only | Print | Product List | Glossary On
Versions: 1 2 3 4 5 6 7 8 9 10 11 12 13 14 15 16 17 18 19 20 21 22 23 24 25
432
FTUS41 KGYX 282320
TAFPWM
TAF
KPWM 282320Z 2900/2924 16008KT P6SM FEW050 SCT250
     FM290600 06006KT 3SM BR BKN008 OVC015
     FM291400 08008KT 5SM BR OVC007=

USA.gov is the U.S. government's official web portal to all federal, state and local government web resources and services.